sensor_id;sensor_type;location;lat;lon;timestamp;temperature;humidity
41939;DHT22;23057;48.554;14.454;2024-03-22T00:02:01;7.30;99.90
41939;DHT22;23057;48.554;14.454;2024-03-22T00:04:31;7.30;99.90
41939;DHT22;23057;48.554;14.454;2024-03-22T00:07:02;7.40;99.90
41939;DHT22;23057;48.554;14.454;2024-03-22T00:09:34;7.30;99.90
41939;DHT22;23057;48.554;14.454;2024-03-22T00:12:05;7.40;99.90
41939;DHT22;23057;48.554;14.454;2024-03-22T00:14:36;7.40;99.90
41939;DHT22;23057;48.554;14.454;2024-03-22T00:17:07;7.30;99.90
41939;DHT22;23057;48.554;14.454;2024-03-22T00:19:38;7.40;99.90
41939;DHT22;23057;48.554;14.454;2024-03-22T00:22:09;7.40;99.90
41939;DHT22;23057;48.554;14.454;2024-03-22T00:24:40;7.40;99.90
41939;DHT22;23057;48.554;14.454;2024-03-22T00:27:11;7.40;99.90
41939;DHT22;23057;48.554;14.454;2024-03-22T00:29:43;7.50;99.90
41939;DHT22;23057;48.554;14.454;2024-03-22T00:32:14;7.50;99.90
41939;DHT22;23057;48.554;14.454;2024-03-22T00:34:46;7.50;99.90
41939;DHT22;23057;48.554;14.454;2024-03-22T00:37:16;7.40;99.90
41939;DHT22;23057;48.554;14.454;2024-03-22T00:39:47;7.40;99.90
41939;DHT22;23057;48.554;14.454;2024-03-22T00:42:18;7.30;99.90
41939;DHT22;23057;48.554;14.454;2024-03-22T00:44:49;7.40;99.90
41939;DHT22;23057;48.554;14.454;2024-03-22T00:47:20;7.40;99.90
41939;DHT22;23057;48.554;14.454;2024-03-22T00:49:51;7.40;99.90
41939;DHT22;23057;48.554;14.454;2024-03-22T00:52:22;7.40;99.90
41939;DHT22;23057;48.554;14.454;2024-03-22T00:54:54;7.40;99.90
41939;DHT22;23057;48.554;14.454;2024-03-22T00:57:25;7.30;99.90
41939;DHT22;23057;48.554;14.454;2024-03-22T00:59:56;7.30;99.90
41939;DHT22;23057;48.554;14.454;2024-03-22T01:02:27;7.20;99.90
41939;DHT22;23057;48.554;14.454;2024-03-22T01:04:58;7.20;99.90
41939;DHT22;23057;48.554;14.454;2024-03-22T01:07:28;7.20;99.90
41939;DHT22;23057;48.554;14.454;2024-03-22T01:09:59;7.20;99.90
41939;DHT22;23057;48.554;14.454;2024-03-22T01:12:30;7.30;99.90
41939;DHT22;23057;48.554;14.454;2024-03-22T01:15:01;7.30;99.90
41939;DHT22;23057;48.554;14.454;2024-03-22T01:17:34;7.30;99.90
41939;DHT22;23057;48.554;14.454;2024-03-22T01:20:06;7.10;99.90
41939;DHT22;23057;48.554;14.454;2024-03-22T01:22:37;6.90;99.90
41939;DHT22;23057;48.554;14.454;2024-03-22T01:25:08;6.90;99.90
41939;DHT22;23057;48.554;14.454;2024-03-22T01:27:40;6.90;99.90
41939;DHT22;23057;48.554;14.454;2024-03-22T01:30:11;6.90;99.90
41939;DHT22;23057;48.554;14.454;2024-03-22T01:32:42;6.80;99.90
41939;DHT22;23057;48.554;14.454;2024-03-22T01:35:13;6.80;99.90
41939;DHT22;23057;48.554;14.454;2024-03-22T01:37:44;6.70;99.90
41939;DHT22;23057;48.554;14.454;2024-03-22T01:40:15;6.60;99.90
41939;DHT22;23057;48.554;14.454;2024-03-22T01:42:46;6.60;99.90
41939;DHT22;23057;48.554;14.454;2024-03-22T01:45:17;6.60;99.90
41939;DHT22;23057;48.554;14.454;2024-03-22T01:47:48;6.50;99.90
41939;DHT22;23057;48.554;14.454;2024-03-22T01:50:22;6.50;99.90
41939;DHT22;23057;48.554;14.454;2024-03-22T01:52:54;6.40;99.90
41939;DHT22;23057;48.554;14.454;2024-03-22T01:55:25;6.40;99.90
41939;DHT22;23057;48.554;14.454;2024-03-22T01:57:59;6.40;99.90
41939;DHT22;23057;48.554;14.454;2024-03-22T02:00:30;6.30;99.90
41939;DHT22;23057;48.554;14.454;2024-03-22T02:03:01;6.20;99.90
41939;DHT22;23057;48.554;14.454;2024-03-22T02:05:32;6.20;99.90
41939;DHT22;23057;48.554;14.454;2024-03-22T02:08:03;6.10;99.90
41939;DHT22;23057;48.554;14.454;2024-03-22T02:10:35;6.10;99.90
41939;DHT22;23057;48.554;14.454;2024-03-22T02:13:06;6.00;99.90
41939;DHT22;23057;48.554;14.454;2024-03-22T02:15:37;6.00;99.90
41939;DHT22;23057;48.554;14.454;2024-03-22T02:18:08;5.90;99.90
41939;DHT22;23057;48.554;14.454;2024-03-22T02:20:38;6.00;99.90
41939;DHT22;23057;48.554;14.454;2024-03-22T02:23:09;5.90;99.90
41939;DHT22;23057;48.554;14.454;2024-03-22T02:25:40;6.00;99.90
41939;DHT22;23057;48.554;14.454;2024-03-22T02:28:11;5.90;99.90
41939;DHT22;23057;48.554;14.454;2024-03-22T02:30:42;5.80;99.90
41939;DHT22;23057;48.554;14.454;2024-03-22T02:33:13;5.80;99.90
41939;DHT22;23057;48.554;14.454;2024-03-22T02:35:46;5.70;99.90
41939;DHT22;23057;48.554;14.454;2024-03-22T02:38:18;5.70;99.90
41939;DHT22;23057;48.554;14.454;2024-03-22T02:40:50;5.70;99.90
41939;DHT22;23057;48.554;14.454;2024-03-22T02:43:23;5.60;99.90
41939;DHT22;23057;48.554;14.454;2024-03-22T02:45:54;5.60;99.90
41939;DHT22;23057;48.554;14.454;2024-03-22T02:48:25;5.60;99.90
41939;DHT22;23057;48.554;14.454;2024-03-22T02:50:56;5.70;99.90
41939;DHT22;23057;48.554;14.454;2024-03-22T02:53:27;5.60;99.90
41939;DHT22;23057;48.554;14.454;2024-03-22T02:56:00;5.60;99.90
41939;DHT22;23057;48.554;14.454;2024-03-22T02:58:31;5.20;99.90
41939;DHT22;23057;48.554;14.454;2024-03-22T03:01:02;5.00;99.90
41939;DHT22;23057;48.554;14.454;2024-03-22T03:03:33;5.10;99.90
41939;DHT22;23057;48.554;14.454;2024-03-22T03:06:04;5.20;99.90
41939;DHT22;23057;48.554;14.454;2024-03-22T03:08:36;5.30;99.90
41939;DHT22;23057;48.554;14.454;2024-03-22T03:11:06;5.30;99.90
41939;DHT22;23057;48.554;14.454;2024-03-22T03:13:38;5.30;99.90
41939;DHT22;23057;48.554;14.454;2024-03-22T03:16:08;5.20;99.90
41939;DHT22;23057;48.554;14.454;2024-03-22T03:18:39;5.10;99.90
41939;DHT22;23057;48.554;14.454;2024-03-22T03:21:11;5.20;99.90
41939;DHT22;23057;48.554;14.454;2024-03-22T03:23:42;5.20;99.90
41939;DHT22;23057;48.554;14.454;2024-03-22T03:26:13;5.30;99.90
41939;DHT22;23057;48.554;14.454;2024-03-22T03:28:44;5.30;99.90
41939;DHT22;23057;48.554;14.454;2024-03-22T03:31:15;5.20;99.90
41939;DHT22;23057;48.554;14.454;2024-03-22T03:33:46;5.30;99.90
41939;DHT22;23057;48.554;14.454;2024-03-22T03:36:16;5.20;99.90
41939;DHT22;23057;48.554;14.454;2024-03-22T03:38:47;5.10;99.90
41939;DHT22;23057;48.554;14.454;2024-03-22T03:41:18;4.80;99.90
41939;DHT22;23057;48.554;14.454;2024-03-22T03:43:49;4.40;99.90
41939;DHT22;23057;48.554;14.454;2024-03-22T03:46:20;3.90;99.90
41939;DHT22;23057;48.554;14.454;2024-03-22T03:48:51;3.90;99.90
41939;DHT22;23057;48.554;14.454;2024-03-22T03:51:22;3.90;99.90
41939;DHT22;23057;48.554;14.454;2024-03-22T03:53:53;4.00;99.90
41939;DHT22;23057;48.554;14.454;2024-03-22T03:56:23;4.10;99.90
41939;DHT22;23057;48.554;14.454;2024-03-22T03:58:55;4.20;99.90
41939;DHT22;23057;48.554;14.454;2024-03-22T04:01:26;4.20;99.90
41939;DHT22;23057;48.554;14.454;2024-03-22T04:03:57;4.30;99.90
41939;DHT22;23057;48.554;14.454;2024-03-22T04:06:28;4.20;99.90
41939;DHT22;23057;48.554;14.454;2024-03-22T04:08:58;4.20;99.90
41939;DHT22;23057;48.554;14.454;2024-03-22T04:11:29;4.40;99.90
41939;DHT22;23057;48.554;14.454;2024-03-22T04:14:00;4.50;99.90
41939;DHT22;23057;48.554;14.454;2024-03-22T04:16:32;4.70;99.90
41939;DHT22;23057;48.554;14.454;2024-03-22T04:19:03;4.80;99.90
41939;DHT22;23057;48.554;14.454;2024-03-22T04:21:34;4.80;99.90
41939;DHT22;23057;48.554;14.454;2024-03-22T04:24:05;4.70;99.90
41939;DHT22;23057;48.554;14.454;2024-03-22T04:26:36;4.40;99.90
41939;DHT22;23057;48.554;14.454;2024-03-22T04:29:06;4.00;99.90
41939;DHT22;23057;48.554;14.454;2024-03-22T04:31:37;3.90;99.90
41939;DHT22;23057;48.554;14.454;2024-03-22T04:34:08;3.80;99.90
41939;DHT22;23057;48.554;14.454;2024-03-22T04:36:40;3.90;99.90
41939;DHT22;23057;48.554;14.454;2024-03-22T04:39:11;4.40;99.90
41939;DHT22;23057;48.554;14.454;2024-03-22T04:41:42;4.50;99.90
41939;DHT22;23057;48.554;14.454;2024-03-22T04:44:13;4.70;99.90
41939;DHT22;23057;48.554;14.454;2024-03-22T04:46:44;4.70;99.90
41939;DHT22;23057;48.554;14.454;2024-03-22T04:49:15;4.40;99.90
41939;DHT22;23057;48.554;14.454;2024-03-22T04:51:46;4.40;99.90
41939;DHT22;23057;48.554;14.454;2024-03-22T04:54:17;4.50;99.90
41939;DHT22;23057;48.554;14.454;2024-03-22T04:56:48;4.60;99.90
41939;DHT22;23057;48.554;14.454;2024-03-22T04:59:20;4.70;99.90
41939;DHT22;23057;48.554;14.454;2024-03-22T05:01:51;4.70;99.90
41939;DHT22;23057;48.554;14.454;2024-03-22T05:04:23;4.70;99.90
41939;DHT22;23057;48.554;14.454;2024-03-22T05:06:54;4.80;99.90
41939;DHT22;23057;48.554;14.454;2024-03-22T05:09:25;4.90;99.90
41939;DHT22;23057;48.554;14.454;2024-03-22T05:11:56;4.80;99.90
41939;DHT22;23057;48.554;14.454;2024-03-22T05:14:27;4.90;99.90
41939;DHT22;23057;48.554;14.454;2024-03-22T05:16:58;4.90;99.90
41939;DHT22;23057;48.554;14.454;2024-03-22T05:19:28;5.00;99.90
41939;DHT22;23057;48.554;14.454;2024-03-22T05:21:59;5.00;99.90
41939;DHT22;23057;48.554;14.454;2024-03-22T05:24:30;5.10;99.90
41939;DHT22;23057;48.554;14.454;2024-03-22T05:27:01;5.20;99.90
41939;DHT22;23057;48.554;14.454;2024-03-22T05:29:32;5.40;99.90
41939;DHT22;23057;48.554;14.454;2024-03-22T05:32:03;5.50;99.90
41939;DHT22;23057;48.554;14.454;2024-03-22T05:34:34;5.40;99.90
41939;DHT22;23057;48.554;14.454;2024-03-22T05:37:06;5.40;99.90
41939;DHT22;23057;48.554;14.454;2024-03-22T05:39:39;5.40;99.90
41939;DHT22;23057;48.554;14.454;2024-03-22T05:42:10;5.30;99.90
41939;DHT22;23057;48.554;14.454;2024-03-22T05:44:41;5.30;99.90
41939;DHT22;23057;48.554;14.454;2024-03-22T05:47:14;5.20;99.90
41939;DHT22;23057;48.554;14.454;2024-03-22T05:49:46;5.20;99.90
41939;DHT22;23057;48.554;14.454;2024-03-22T05:52:17;5.30;99.90
41939;DHT22;23057;48.554;14.454;2024-03-22T05:54:49;5.40;99.90
41939;DHT22;23057;48.554;14.454;2024-03-22T05:57:20;5.50;99.90
41939;DHT22;23057;48.554;14.454;2024-03-22T05:59:50;5.60;99.90
41939;DHT22;23057;48.554;14.454;2024-03-22T06:02:22;5.70;99.90
41939;DHT22;23057;48.554;14.454;2024-03-22T06:04:53;5.80;99.90
41939;DHT22;23057;48.554;14.454;2024-03-22T06:07:24;5.90;99.90
41939;DHT22;23057;48.554;14.454;2024-03-22T06:09:56;6.00;99.90
41939;DHT22;23057;48.554;14.454;2024-03-22T06:12:27;6.00;99.90
41939;DHT22;23057;48.554;14.454;2024-03-22T06:14:58;6.00;99.90
41939;DHT22;23057;48.554;14.454;2024-03-22T06:17:28;6.10;99.90
41939;DHT22;23057;48.554;14.454;2024-03-22T06:20:00;6.20;99.90
41939;DHT22;23057;48.554;14.454;2024-03-22T06:22:31;6.20;99.90
41939;DHT22;23057;48.554;14.454;2024-03-22T06:25:02;6.30;99.90
41939;DHT22;23057;48.554;14.454;2024-03-22T06:27:34;6.30;99.90
41939;DHT22;23057;48.554;14.454;2024-03-22T06:30:05;6.30;99.90
41939;DHT22;23057;48.554;14.454;2024-03-22T06:32:37;6.30;99.90
41939;DHT22;23057;48.554;14.454;2024-03-22T06:35:08;6.40;99.90
41939;DHT22;23057;48.554;14.454;2024-03-22T06:37:40;6.60;99.90
41939;DHT22;23057;48.554;14.454;2024-03-22T06:40:16;6.80;99.90
41939;DHT22;23057;48.554;14.454;2024-03-22T06:42:53;6.80;99.90
41939;DHT22;23057;48.554;14.454;2024-03-22T06:45:24;6.90;99.90
41939;DHT22;23057;48.554;14.454;2024-03-22T06:47:55;6.80;99.90
41939;DHT22;23057;48.554;14.454;2024-03-22T06:50:26;6.80;99.90
41939;DHT22;23057;48.554;14.454;2024-03-22T06:52:57;6.90;99.90
41939;DHT22;23057;48.554;14.454;2024-03-22T06:55:28;7.00;99.90
41939;DHT22;23057;48.554;14.454;2024-03-22T06:57:59;7.10;99.90
41939;DHT22;23057;48.554;14.454;2024-03-22T07:00:30;7.20;99.90
41939;DHT22;23057;48.554;14.454;2024-03-22T07:03:02;7.20;99.90
41939;DHT22;23057;48.554;14.454;2024-03-22T07:05:34;7.30;99.90
41939;DHT22;23057;48.554;14.454;2024-03-22T07:08:05;7.40;99.90
41939;DHT22;23057;48.554;14.454;2024-03-22T07:10:39;7.60;99.90
41939;DHT22;23057;48.554;14.454;2024-03-22T07:13:10;7.80;99.90
41939;DHT22;23057;48.554;14.454;2024-03-22T07:15:41;8.10;99.90
41939;DHT22;23057;48.554;14.454;2024-03-22T07:18:15;8.00;99.90
41939;DHT22;23057;48.554;14.454;2024-03-22T07:20:46;8.00;99.90
41939;DHT22;23057;48.554;14.454;2024-03-22T07:23:18;8.10;99.90
41939;DHT22;23057;48.554;14.454;2024-03-22T07:25:49;8.30;99.90
41939;DHT22;23057;48.554;14.454;2024-03-22T07:28:20;8.60;99.90
41939;DHT22;23057;48.554;14.454;2024-03-22T07:30:51;8.80;99.90
41939;DHT22;23057;48.554;14.454;2024-03-22T07:33:22;8.90;99.90
41939;DHT22;23057;48.554;14.454;2024-03-22T07:35:53;9.20;99.90
41939;DHT22;23057;48.554;14.454;2024-03-22T07:38:25;9.40;99.90
41939;DHT22;23057;48.554;14.454;2024-03-22T07:40:56;9.50;99.90
41939;DHT22;23057;48.554;14.454;2024-03-22T07:43:27;9.80;99.90
41939;DHT22;23057;48.554;14.454;2024-03-22T07:45:58;10.00;99.90
41939;DHT22;23057;48.554;14.454;2024-03-22T07:48:29;10.10;99.90
41939;DHT22;23057;48.554;14.454;2024-03-22T07:51:00;10.10;99.90
41939;DHT22;23057;48.554;14.454;2024-03-22T07:53:32;10.00;99.90
41939;DHT22;23057;48.554;14.454;2024-03-22T07:56:03;10.20;99.90
41939;DHT22;23057;48.554;14.454;2024-03-22T07:58:34;10.40;99.90
41939;DHT22;23057;48.554;14.454;2024-03-22T08:01:05;10.70;1.00
41939;DHT22;23057;48.554;14.454;2024-03-22T08:03:36;10.60;99.90
41939;DHT22;23057;48.554;14.454;2024-03-22T08:06:07;11.10;99.90
41939;DHT22;23057;48.554;14.454;2024-03-22T08:08:37;11.50;96.70
41939;DHT22;23057;48.554;14.454;2024-03-22T08:11:08;11.70;99.90
41939;DHT22;23057;48.554;14.454;2024-03-22T08:13:39;11.50;95.20
41939;DHT22;23057;48.554;14.454;2024-03-22T08:16:10;11.90;99.90
41939;DHT22;23057;48.554;14.454;2024-03-22T08:18:41;12.20;1.00
41939;DHT22;23057;48.554;14.454;2024-03-22T08:21:12;12.60;1.00
41939;DHT22;23057;48.554;14.454;2024-03-22T08:23:43;12.70;99.90
41939;DHT22;23057;48.554;14.454;2024-03-22T08:26:14;11.90;99.90
41939;DHT22;23057;48.554;14.454;2024-03-22T08:28:46;12.00;99.90
41939;DHT22;23057;48.554;14.454;2024-03-22T08:31:17;12.00;99.90
41939;DHT22;23057;48.554;14.454;2024-03-22T08:33:52;11.90;99.90
41939;DHT22;23057;48.554;14.454;2024-03-22T08:36:23;12.00;99.90
41939;DHT22;23057;48.554;14.454;2024-03-22T08:38:54;12.20;99.90
41939;DHT22;23057;48.554;14.454;2024-03-22T08:41:25;12.00;99.90
41939;DHT22;23057;48.554;14.454;2024-03-22T08:43:56;11.80;99.90
41939;DHT22;23057;48.554;14.454;2024-03-22T08:46:27;11.60;99.90
41939;DHT22;23057;48.554;14.454;2024-03-22T08:48:58;11.40;99.90
41939;DHT22;23057;48.554;14.454;2024-03-22T08:51:29;11.20;99.90
41939;DHT22;23057;48.554;14.454;2024-03-22T08:54:00;11.30;99.90
41939;DHT22;23057;48.554;14.454;2024-03-22T08:56:31;11.40;99.90
41939;DHT22;23057;48.554;14.454;2024-03-22T08:59:02;11.40;99.90
41939;DHT22;23057;48.554;14.454;2024-03-22T09:01:33;11.60;99.90
41939;DHT22;23057;48.554;14.454;2024-03-22T09:04:04;12.10;99.90
41939;DHT22;23057;48.554;14.454;2024-03-22T09:06:35;12.60;99.90
41939;DHT22;23057;48.554;14.454;2024-03-22T09:09:06;12.90;99.90
41939;DHT22;23057;48.554;14.454;2024-03-22T09:11:38;12.90;99.90
41939;DHT22;23057;48.554;14.454;2024-03-22T09:14:09;12.80;92.80
41939;DHT22;23057;48.554;14.454;2024-03-22T09:16:40;12.60;78.00
41939;DHT22;23057;48.554;14.454;2024-03-22T09:19:11;12.80;99.90
41939;DHT22;23057;48.554;14.454;2024-03-22T09:21:42;13.50;53.30
41939;DHT22;23057;48.554;14.454;2024-03-22T09:24:13;13.70;1.00
41939;DHT22;23057;48.554;14.454;2024-03-22T09:26:44;13.90;26.50
41939;DHT22;23057;48.554;14.454;2024-03-22T09:29:15;14.20;1.00
41939;DHT22;23057;48.554;14.454;2024-03-22T09:31:46;14.30;1.00
41939;DHT22;23057;48.554;14.454;2024-03-22T09:34:17;14.50;1.00
41939;DHT22;23057;48.554;14.454;2024-03-22T09:36:48;14.20;1.00
41939;DHT22;23057;48.554;14.454;2024-03-22T09:39:19;13.80;1.00
41939;DHT22;23057;48.554;14.454;2024-03-22T09:41:51;14.10;1.00
41939;DHT22;23057;48.554;14.454;2024-03-22T09:44:23;13.90;1.00
41939;DHT22;23057;48.554;14.454;2024-03-22T09:46:57;14.20;1.00
41939;DHT22;23057;48.554;14.454;2024-03-22T09:49:30;14.00;1.00
41939;DHT22;23057;48.554;14.454;2024-03-22T09:52:02;14.30;1.00
41939;DHT22;23057;48.554;14.454;2024-03-22T09:54:34;14.50;1.00
41939;DHT22;23057;48.554;14.454;2024-03-22T09:57:05;14.70;1.00
41939;DHT22;23057;48.554;14.454;2024-03-22T09:59:44;14.50;1.00
41939;DHT22;23057;48.554;14.454;2024-03-22T10:02:16;14.50;1.00
41939;DHT22;23057;48.554;14.454;2024-03-22T10:04:50;14.50;99.90
41939;DHT22;23057;48.554;14.454;2024-03-22T10:07:21;14.40;1.00
41939;DHT22;23057;48.554;14.454;2024-03-22T10:09:52;14.30;99.90
41939;DHT22;23057;48.554;14.454;2024-03-22T10:12:23;14.40;1.00
41939;DHT22;23057;48.554;14.454;2024-03-22T10:14:55;14.40;1.00
41939;DHT22;23057;48.554;14.454;2024-03-22T10:17:27;14.10;1.00
41939;DHT22;23057;48.554;14.454;2024-03-22T10:19:59;14.10;1.00
41939;DHT22;23057;48.554;14.454;2024-03-22T10:22:30;13.60;1.00
41939;DHT22;23057;48.554;14.454;2024-03-22T10:25:01;13.40;1.00
41939;DHT22;23057;48.554;14.454;2024-03-22T10:27:32;13.40;1.00
41939;DHT22;23057;48.554;14.454;2024-03-22T10:30:06;13.60;1.00
41939;DHT22;23057;48.554;14.454;2024-03-22T10:32:40;13.60;1.00
41939;DHT22;23057;48.554;14.454;2024-03-22T10:35:13;13.30;1.00
41939;DHT22;23057;48.554;14.454;2024-03-22T10:37:45;13.60;1.00
41939;DHT22;23057;48.554;14.454;2024-03-22T10:40:17;13.70;1.00
41939;DHT22;23057;48.554;14.454;2024-03-22T10:42:49;13.80;1.00
41939;DHT22;23057;48.554;14.454;2024-03-22T10:45:20;14.20;1.00
41939;DHT22;23057;48.554;14.454;2024-03-22T10:47:55;14.70;1.00
41939;DHT22;23057;48.554;14.454;2024-03-22T10:50:27;14.80;99.90
41939;DHT22;23057;48.554;14.454;2024-03-22T10:53:02;14.70;99.90
41939;DHT22;23057;48.554;14.454;2024-03-22T10:55:43;15.00;99.90
41939;DHT22;23057;48.554;14.454;2024-03-22T10:58:23;14.90;99.90
41939;DHT22;23057;48.554;14.454;2024-03-22T11:00:56;14.30;99.90
41939;DHT22;23057;48.554;14.454;2024-03-22T11:03:27;14.40;99.90
41939;DHT22;23057;48.554;14.454;2024-03-22T11:06:01;14.30;99.90
41939;DHT22;23057;48.554;14.454;2024-03-22T11:08:31;13.90;99.90
41939;DHT22;23057;48.554;14.454;2024-03-22T11:11:11;13.50;99.90
41939;DHT22;23057;48.554;14.454;2024-03-22T11:13:42;13.50;99.90
41939;DHT22;23057;48.554;14.454;2024-03-22T11:16:14;13.30;1.00
41939;DHT22;23057;48.554;14.454;2024-03-22T11:18:45;13.30;1.00
41939;DHT22;23057;48.554;14.454;2024-03-22T11:21:16;13.20;1.00
41939;DHT22;23057;48.554;14.454;2024-03-22T11:23:51;13.10;1.00
41939;DHT22;23057;48.554;14.454;2024-03-22T11:26:22;13.10;1.00
41939;DHT22;23057;48.554;14.454;2024-03-22T11:28:53;13.30;1.00
41939;DHT22;23057;48.554;14.454;2024-03-22T11:31:24;13.30;1.00
41939;DHT22;23057;48.554;14.454;2024-03-22T11:33:57;13.60;1.00
41939;DHT22;23057;48.554;14.454;2024-03-22T11:36:29;13.40;99.90
41939;DHT22;23057;48.554;14.454;2024-03-22T11:39:00;13.50;1.00
41939;DHT22;23057;48.554;14.454;2024-03-22T11:41:31;13.60;1.00
41939;DHT22;23057;48.554;14.454;2024-03-22T11:44:03;13.50;1.00
41939;DHT22;23057;48.554;14.454;2024-03-22T11:46:35;13.60;1.00
41939;DHT22;23057;48.554;14.454;2024-03-22T11:49:06;13.80;1.00
41939;DHT22;23057;48.554;14.454;2024-03-22T11:51:38;13.80;1.00
41939;DHT22;23057;48.554;14.454;2024-03-22T11:54:09;13.90;1.00
41939;DHT22;23057;48.554;14.454;2024-03-22T11:56:40;13.70;1.00
41939;DHT22;23057;48.554;14.454;2024-03-22T11:59:11;13.60;1.00
41939;DHT22;23057;48.554;14.454;2024-03-22T12:01:42;13.70;1.00
41939;DHT22;23057;48.554;14.454;2024-03-22T12:04:13;13.50;1.00
41939;DHT22;23057;48.554;14.454;2024-03-22T12:06:45;13.90;1.00
41939;DHT22;23057;48.554;14.454;2024-03-22T12:09:16;14.10;1.00
41939;DHT22;23057;48.554;14.454;2024-03-22T12:11:47;14.10;1.00
41939;DHT22;23057;48.554;14.454;2024-03-22T12:14:19;14.20;1.00
41939;DHT22;23057;48.554;14.454;2024-03-22T12:16:54;14.30;1.00
41939;DHT22;23057;48.554;14.454;2024-03-22T12:19:25;14.30;1.00
41939;DHT22;23057;48.554;14.454;2024-03-22T12:21:56;14.50;1.00
41939;DHT22;23057;48.554;14.454;2024-03-22T12:24:28;14.80;1.00
41939;DHT22;23057;48.554;14.454;2024-03-22T12:26:59;14.60;1.00
41939;DHT22;23057;48.554;14.454;2024-03-22T12:29:34;15.00;1.00
41939;DHT22;23057;48.554;14.454;2024-03-22T12:32:05;15.40;1.00
41939;DHT22;23057;48.554;14.454;2024-03-22T12:34:38;15.50;1.00
41939;DHT22;23057;48.554;14.454;2024-03-22T12:37:09;15.40;99.90
41939;DHT22;23057;48.554;14.454;2024-03-22T12:39:40;15.30;99.90
41939;DHT22;23057;48.554;14.454;2024-03-22T12:42:11;15.20;99.90
41939;DHT22;23057;48.554;14.454;2024-03-22T12:44:42;15.30;99.90
41939;DHT22;23057;48.554;14.454;2024-03-22T12:47:13;15.40;99.90
41939;DHT22;23057;48.554;14.454;2024-03-22T12:49:44;15.30;99.90
41939;DHT22;23057;48.554;14.454;2024-03-22T12:52:15;15.10;99.90
41939;DHT22;23057;48.554;14.454;2024-03-22T12:54:46;15.10;99.90
41939;DHT22;23057;48.554;14.454;2024-03-22T12:57:17;15.30;99.90
41939;DHT22;23057;48.554;14.454;2024-03-22T12:59:48;15.20;99.90
41939;DHT22;23057;48.554;14.454;2024-03-22T13:02:19;14.90;99.90
41939;DHT22;23057;48.554;14.454;2024-03-22T13:04:51;15.00;99.90
41939;DHT22;23057;48.554;14.454;2024-03-22T13:07:28;15.40;99.90
41939;DHT22;23057;48.554;14.454;2024-03-22T13:09:59;15.20;99.90
41939;DHT22;23057;48.554;14.454;2024-03-22T13:12:34;15.10;99.90
41939;DHT22;23057;48.554;14.454;2024-03-22T13:15:05;15.30;99.90
41939;DHT22;23057;48.554;14.454;2024-03-22T13:17:37;15.40;99.90
41939;DHT22;23057;48.554;14.454;2024-03-22T13:20:09;15.70;99.90
41939;DHT22;23057;48.554;14.454;2024-03-22T13:22:42;15.70;99.90
41939;DHT22;23057;48.554;14.454;2024-03-22T13:25:14;15.60;99.90
41939;DHT22;23057;48.554;14.454;2024-03-22T13:27:45;15.70;99.90
41939;DHT22;23057;48.554;14.454;2024-03-22T13:30:16;15.60;99.90
41939;DHT22;23057;48.554;14.454;2024-03-22T13:32:47;15.90;99.90
41939;DHT22;23057;48.554;14.454;2024-03-22T13:35:19;15.70;99.90
41939;DHT22;23057;48.554;14.454;2024-03-22T13:37:50;15.60;99.90
41939;DHT22;23057;48.554;14.454;2024-03-22T13:40:24;15.80;99.90
41939;DHT22;23057;48.554;14.454;2024-03-22T13:42:55;15.60;99.90
41939;DHT22;23057;48.554;14.454;2024-03-22T13:45:26;15.70;99.90
41939;DHT22;23057;48.554;14.454;2024-03-22T13:47:58;15.40;99.90
41939;DHT22;23057;48.554;14.454;2024-03-22T13:50:29;15.40;99.90
41939;DHT22;23057;48.554;14.454;2024-03-22T13:53:00;15.40;99.90
41939;DHT22;23057;48.554;14.454;2024-03-22T13:55:31;15.50;99.90
41939;DHT22;23057;48.554;14.454;2024-03-22T13:58:03;14.90;99.90
41939;DHT22;23057;48.554;14.454;2024-03-22T14:00:34;14.90;99.90
41939;DHT22;23057;48.554;14.454;2024-03-22T14:03:06;14.90;99.90
41939;DHT22;23057;48.554;14.454;2024-03-22T14:05:37;14.90;99.90
41939;DHT22;23057;48.554;14.454;2024-03-22T14:08:08;15.10;99.90
41939;DHT22;23057;48.554;14.454;2024-03-22T14:10:39;15.30;99.90
41939;DHT22;23057;48.554;14.454;2024-03-22T14:13:09;15.30;99.90
41939;DHT22;23057;48.554;14.454;2024-03-22T14:15:40;15.50;99.90
41939;DHT22;23057;48.554;14.454;2024-03-22T14:18:11;15.50;99.90
41939;DHT22;23057;48.554;14.454;2024-03-22T14:20:42;15.30;99.90
41939;DHT22;23057;48.554;14.454;2024-03-22T14:23:13;15.20;99.90
41939;DHT22;23057;48.554;14.454;2024-03-22T14:25:44;15.20;99.90
41939;DHT22;23057;48.554;14.454;2024-03-22T14:28:18;15.50;99.90
41939;DHT22;23057;48.554;14.454;2024-03-22T14:30:49;15.20;99.90
41939;DHT22;23057;48.554;14.454;2024-03-22T14:33:19;14.80;99.90
41939;DHT22;23057;48.554;14.454;2024-03-22T14:35:50;14.50;99.90
41939;DHT22;23057;48.554;14.454;2024-03-22T14:38:21;14.50;99.90
41939;DHT22;23057;48.554;14.454;2024-03-22T14:40:52;14.70;99.90
41939;DHT22;23057;48.554;14.454;2024-03-22T14:43:24;14.80;99.90
41939;DHT22;23057;48.554;14.454;2024-03-22T14:45:56;14.90;99.90
41939;DHT22;23057;48.554;14.454;2024-03-22T14:48:27;15.00;99.90
41939;DHT22;23057;48.554;14.454;2024-03-22T14:50:58;14.90;99.90
41939;DHT22;23057;48.554;14.454;2024-03-22T14:53:29;14.60;99.90
41939;DHT22;23057;48.554;14.454;2024-03-22T14:56:02;14.90;99.90
41939;DHT22;23057;48.554;14.454;2024-03-22T14:58:35;15.10;99.90
41939;DHT22;23057;48.554;14.454;2024-03-22T15:01:06;15.00;99.90
41939;DHT22;23057;48.554;14.454;2024-03-22T15:03:37;14.80;99.90
41939;DHT22;23057;48.554;14.454;2024-03-22T15:06:08;14.70;99.90
41939;DHT22;23057;48.554;14.454;2024-03-22T15:08:39;14.50;99.90
41939;DHT22;23057;48.554;14.454;2024-03-22T15:11:10;14.50;99.90
41939;DHT22;23057;48.554;14.454;2024-03-22T15:13:41;14.40;99.90
41939;DHT22;23057;48.554;14.454;2024-03-22T15:16:12;14.30;99.90
41939;DHT22;23057;48.554;14.454;2024-03-22T15:18:43;14.40;99.90
41939;DHT22;23057;48.554;14.454;2024-03-22T15:21:14;14.30;99.90
41939;DHT22;23057;48.554;14.454;2024-03-22T15:23:46;14.60;99.90
41939;DHT22;23057;48.554;14.454;2024-03-22T15:26:17;14.50;99.90
41939;DHT22;23057;48.554;14.454;2024-03-22T15:28:51;14.30;99.90
41939;DHT22;23057;48.554;14.454;2024-03-22T15:31:22;14.30;99.90
41939;DHT22;23057;48.554;14.454;2024-03-22T15:33:53;14.30;99.90
41939;DHT22;23057;48.554;14.454;2024-03-22T15:36:24;14.10;99.90
41939;DHT22;23057;48.554;14.454;2024-03-22T15:38:55;14.00;99.90
41939;DHT22;23057;48.554;14.454;2024-03-22T15:41:26;13.90;99.90
41939;DHT22;23057;48.554;14.454;2024-03-22T15:43:57;13.70;1.00
41939;DHT22;23057;48.554;14.454;2024-03-22T15:46:29;13.60;1.00
41939;DHT22;23057;48.554;14.454;2024-03-22T15:49:00;13.60;1.00
41939;DHT22;23057;48.554;14.454;2024-03-22T15:51:31;13.60;1.00